createdAt,value
2018-06-04T00:00:31.087Z,27.87
2018-06-04T00:02:59.420Z,27.90
2018-06-04T00:05:27.828Z,27.90
2018-06-04T00:07:56.313Z,29.33
2018-06-04T00:10:24.684Z,32.33
2018-06-04T00:12:53.985Z,26.87
2018-06-04T00:15:22.345Z,29.57
2018-06-04T00:17:50.723Z,30.10
2018-06-04T00:20:19.098Z,30.80
2018-06-04T00:22:47.433Z,28.97
2018-06-04T00:25:15.766Z,29.00
2018-06-04T00:27:44.206Z,28.30
2018-06-04T00:30:13.479Z,28.70
2018-06-04T00:32:42.857Z,30.17
2018-06-04T00:35:12.072Z,29.23
2018-06-04T00:37:40.448Z,28.87
2018-06-04T00:40:09.746Z,31.07
2018-06-04T00:42:38.125Z,29.10
2018-06-04T00:45:07.429Z,28.23
2018-06-04T00:47:36.584Z,29.57
2018-06-04T00:50:05.975Z,28.67
2018-06-04T00:52:34.308Z,26.43
2018-06-04T00:55:04.541Z,28.60
2018-06-04T00:57:33.876Z,27.60
2018-06-04T01:00:03.138Z,28.40
2018-06-04T01:02:32.348Z,30.77
2018-06-04T01:05:01.430Z,31.10
2018-06-04T01:07:29.774Z,33.63
2018-06-04T01:09:58.185Z,29.27
2018-06-04T01:12:27.476Z,32.33
2018-06-04T01:14:56.777Z,31.13
2018-06-04T01:17:25.969Z,30.80
2018-06-04T01:19:55.330Z,27.57
2018-06-04T01:22:24.537Z,28.57
2018-06-04T01:24:53.869Z,29.23
2018-06-04T01:27:23.379Z,32.57
2018-06-04T01:29:52.631Z,31.37
2018-06-04T01:32:21.857Z,33.00
2018-06-04T01:34:50.187Z,32.13
2018-06-04T01:37:19.468Z,31.13
2018-06-04T01:39:48.896Z,30.77
2018-06-04T01:42:17.301Z,31.83
2018-06-04T01:44:46.632Z,30.83
2018-06-04T01:47:16.041Z,31.03
2018-06-04T01:49:45.336Z,32.90
2018-06-04T01:52:14.571Z,33.47
2018-06-04T01:54:43.856Z,30.67
2018-06-04T01:57:12.257Z,30.93
2018-06-04T01:59:40.648Z,29.60
2018-06-04T02:02:09.014Z,31.50
2018-06-04T02:04:38.230Z,28.20
2018-06-04T02:07:07.532Z,27.90
2018-06-04T02:09:35.909Z,30.47
2018-06-04T02:12:04.283Z,28.13
2018-06-04T02:14:32.608Z,27.50
2018-06-04T02:17:01.945Z,26.40
2018-06-04T02:19:31.213Z,25.87
2018-06-04T02:22:00.544Z,26.77
2018-06-04T02:24:29.707Z,31.30
2018-06-04T02:26:58.036Z,27.17
2018-06-04T02:29:26.461Z,33.33
2018-06-04T02:31:54.845Z,32.63
2018-06-04T02:34:23.181Z,37.07
2018-06-04T02:36:51.559Z,33.83
2018-06-04T02:39:20.780Z,33.90
2018-06-04T02:41:49.220Z,32.17
2018-06-04T02:44:17.536Z,32.10
2018-06-04T02:46:45.902Z,33.03
2018-06-04T02:49:14.243Z,33.17
2018-06-04T02:51:42.618Z,34.03
2018-06-04T02:54:12.003Z,35.90
2018-06-04T02:56:40.336Z,34.50
2018-06-04T02:59:09.708Z,34.20
2018-06-04T03:01:38.137Z,34.57
2018-06-04T03:04:07.152Z,33.80
2018-06-04T03:06:35.497Z,32.07
2018-06-04T03:09:04.618Z,31.80
2018-06-04T03:11:32.973Z,31.70
2018-06-04T03:14:01.357Z,32.97
2018-06-04T03:16:29.749Z,32.13
2018-06-04T03:18:58.084Z,34.10
2018-06-04T03:21:27.336Z,27.40
2018-06-04T03:23:56.564Z,31.17
2018-06-04T03:26:24.898Z,33.97
2018-06-04T03:28:54.109Z,33.80
2018-06-04T03:31:22.450Z,30.30
2018-06-04T03:33:50.789Z,33.63
2018-06-04T03:36:19.177Z,35.80
2018-06-04T03:38:47.600Z,33.20
2018-06-04T03:41:16.688Z,32.63
2018-06-04T03:43:45.075Z,32.90
2018-06-04T03:46:13.809Z,34.80
2018-06-04T03:48:43.160Z,31.77
2018-06-04T03:51:11.537Z,30.93
2018-06-04T03:53:41.611Z,31.13
2018-06-04T03:56:10.878Z,33.50
2018-06-04T03:58:40.148Z,31.27
2018-06-04T04:01:09.409Z,33.13
2018-06-04T04:03:38.612Z,35.13
2018-06-04T04:06:06.934Z,37.10
2018-06-04T04:08:36.277Z,35.60
2018-06-04T04:11:05.515Z,32.13
2018-06-04T04:13:34.774Z,32.93
2018-06-04T04:16:04.048Z,37.73
2018-06-04T04:18:33.272Z,35.90
2018-06-04T04:21:02.618Z,33.47
2018-06-04T04:23:30.989Z,30.87
2018-06-04T04:25:59.423Z,35.20
2018-06-04T04:28:28.833Z,35.23
2018-06-04T04:30:58.165Z,36.70
2018-06-04T04:33:27.434Z,34.57
2018-06-04T04:35:56.837Z,37.77
2018-06-04T04:38:26.113Z,35.47
2018-06-04T04:40:55.610Z,35.70
2018-06-04T04:43:24.939Z,36.83
2018-06-04T04:45:53.297Z,34.87
2018-06-04T04:48:21.901Z,39.53
2018-06-04T04:50:50.283Z,37.10
2018-06-04T04:53:18.649Z,36.97
2018-06-04T04:55:46.977Z,39.97
2018-06-04T04:58:16.198Z,35.40
2018-06-04T05:00:44.666Z,36.53
2018-06-04T05:03:14.026Z,36.30
2018-06-04T05:05:42.389Z,33.78
2018-06-04T05:08:11.660Z,36.33
2018-06-04T05:10:41.050Z,34.60
2018-06-04T05:13:09.520Z,35.17
2018-06-04T05:15:37.872Z,33.30
2018-06-04T05:18:06.204Z,33.43
2018-06-04T05:20:34.556Z,33.20
2018-06-04T05:23:03.009Z,31.33
2018-06-04T05:25:31.390Z,29.17
2018-06-04T05:27:59.734Z,33.13
2018-06-04T05:30:28.082Z,30.77
2018-06-04T05:32:56.414Z,30.63
2018-06-04T05:35:24.810Z,28.77
2018-06-04T05:37:53.141Z,27.47
2018-06-04T05:40:21.552Z,27.43
2018-06-04T05:42:49.961Z,27.50
2018-06-04T05:45:18.282Z,27.30
2018-06-04T05:47:46.608Z,27.40
2018-06-04T05:50:15.001Z,26.17
2018-06-04T05:52:43.364Z,25.27
2018-06-04T05:55:11.682Z,25.63
2018-06-04T05:57:40.020Z,25.90
2018-06-04T06:00:08.348Z,25.83
2018-06-04T06:02:36.688Z,25.43
2018-06-04T06:05:05.043Z,24.03
2018-06-04T06:07:33.374Z,26.67
2018-06-04T06:10:02.637Z,23.77
2018-06-04T06:12:30.961Z,26.80
2018-06-04T06:14:59.298Z,25.90
2018-06-04T06:17:27.896Z,21.10
2018-06-04T06:19:56.272Z,17.50
2018-06-04T06:22:25.481Z,19.10
2018-06-04T06:24:53.889Z,19.07
2018-06-04T06:27:23.198Z,17.40
2018-06-04T06:29:51.642Z,15.77
2018-06-04T06:32:19.970Z,16.50
2018-06-04T06:34:48.402Z,14.73
2018-06-04T06:37:17.017Z,14.47
2018-06-04T06:39:45.356Z,13.30
2018-06-04T06:42:13.911Z,14.30
2018-06-04T06:44:42.617Z,17.20
2018-06-04T06:47:11.232Z,14.57
2018-06-04T06:49:39.709Z,16.30
2018-06-04T06:52:08.269Z,16.80
2018-06-04T06:54:36.802Z,18.43
2018-06-04T06:57:05.153Z,15.90
2018-06-04T06:59:41.675Z,17.47
2018-06-04T07:02:11.293Z,17.40
2018-06-04T07:04:40.043Z,16.60
2018-06-04T07:07:08.474Z,16.83
2018-06-04T07:09:36.886Z,17.27
2018-06-04T07:12:06.352Z,16.83
2018-06-04T07:14:36.101Z,14.30
2018-06-04T07:17:05.462Z,15.07
2018-06-04T07:19:34.893Z,17.63
2018-06-04T07:22:04.216Z,15.00
2018-06-04T07:24:32.708Z,17.30
2018-06-04T07:27:01.285Z,16.63
2018-06-04T07:29:30.715Z,13.50
2018-06-04T07:31:59.209Z,12.10
2018-06-04T07:34:28.565Z,12.00
2018-06-04T07:36:57.914Z,12.53
2018-06-04T07:39:27.297Z,13.67
2018-06-04T07:41:55.763Z,12.80
2018-06-04T07:44:24.301Z,12.30
2018-06-04T07:46:52.781Z,13.53
2018-06-04T07:49:21.222Z,12.73
2018-06-04T07:51:50.650Z,11.70
2018-06-04T07:54:19.121Z,13.10
2018-06-04T07:56:48.521Z,14.70
2018-06-04T07:59:17.027Z,14.50
2018-06-04T08:01:45.509Z,13.77
2018-06-04T08:04:14.017Z,11.03
2018-06-04T08:06:42.405Z,12.10
2018-06-04T08:09:10.829Z,12.47
2018-06-04T08:11:40.104Z,12.07
2018-06-04T08:14:10.250Z,12.80
2018-06-04T08:16:39.587Z,15.03
2018-06-04T08:19:07.983Z,15.00
2018-06-04T08:21:37.336Z,14.53
2018-06-04T08:24:06.222Z,15.20
2018-06-04T08:26:34.796Z,16.03
2018-06-04T08:29:03.382Z,11.90
2018-06-04T08:31:31.822Z,14.77
2018-06-04T08:34:00.988Z,14.63
2018-06-04T08:36:30.690Z,15.90
2018-06-04T08:39:00.169Z,14.73
2018-06-04T08:41:28.701Z,12.70
2018-06-04T08:43:58.047Z,13.20
2018-06-04T08:46:27.192Z,15.30
2018-06-04T08:48:56.514Z,14.77
2018-06-04T08:51:25.818Z,16.20
2018-06-04T08:53:55.194Z,13.47
2018-06-04T08:56:24.477Z,13.93
2018-06-04T08:58:53.870Z,13.50
2018-06-04T09:01:22.326Z,12.50
2018-06-04T09:03:50.667Z,12.40
2018-06-04T09:06:19.385Z,13.90
2018-06-04T09:08:47.869Z,14.67
2018-06-04T09:11:16.580Z,14.10
2018-06-04T09:13:44.996Z,14.07
2018-06-04T09:16:13.418Z,13.57
2018-06-04T09:18:41.861Z,12.87
2018-06-04T09:21:10.206Z,11.93
2018-06-04T09:23:38.621Z,11.23
2018-06-04T09:26:07.170Z,13.47
2018-06-04T09:28:35.508Z,11.63
2018-06-04T09:31:04.742Z,13.73
2018-06-04T09:33:33.098Z,11.50
2018-06-04T09:36:01.430Z,11.97
2018-06-04T09:38:29.871Z,10.50
2018-06-04T09:40:59.125Z,9.30
2018-06-04T09:43:27.449Z,9.70
2018-06-04T09:45:55.811Z,10.73
2018-06-04T09:48:24.166Z,9.13
2018-06-04T09:50:52.593Z,8.53
2018-06-04T09:53:20.943Z,9.57
2018-06-04T09:55:49.692Z,9.60
2018-06-04T09:58:18.129Z,9.30
2018-06-04T10:00:46.506Z,10.80
2018-06-04T10:03:14.889Z,9.63
2018-06-04T10:05:43.320Z,9.83
2018-06-04T10:08:11.774Z,8.77
2018-06-04T10:10:42.725Z,8.37
2018-06-04T10:13:13.915Z,9.00
2018-06-04T10:15:46.089Z,8.60
2018-06-04T10:18:15.312Z,9.13
2018-06-04T10:20:43.747Z,8.90
2018-06-04T10:23:12.070Z,8.40
2018-06-04T10:25:40.441Z,7.90
2018-06-04T10:28:08.908Z,9.50
2018-06-04T10:30:38.273Z,8.30
2018-06-04T10:33:07.746Z,8.17
2018-06-04T10:35:37.266Z,7.50
2018-06-04T10:38:08.183Z,7.77
2018-06-04T10:40:38.758Z,8.00
2018-06-04T10:43:08.903Z,8.57
2018-06-04T10:45:37.846Z,8.80
2018-06-04T10:48:07.134Z,7.87
2018-06-04T10:50:37.005Z,8.70
2018-06-04T10:53:06.795Z,9.17
2018-06-04T10:55:36.264Z,8.57
2018-06-04T10:58:06.458Z,7.00
2018-06-04T11:00:34.797Z,7.50
2018-06-04T11:03:04.141Z,7.13
2018-06-04T11:05:33.552Z,6.57
2018-06-04T11:08:04.857Z,7.80
2018-06-04T11:10:34.061Z,7.00
2018-06-04T11:13:02.402Z,6.60
2018-06-04T11:15:32.172Z,7.10
2018-06-04T11:18:05.206Z,8.77
2018-06-04T11:20:34.550Z,7.80
2018-06-04T11:23:02.949Z,7.37
2018-06-04T11:25:33.141Z,7.50
2018-06-04T11:28:01.624Z,7.00
2018-06-04T11:30:29.992Z,7.17
2018-06-04T11:32:58.551Z,8.73
2018-06-04T11:35:26.921Z,8.20
2018-06-04T11:37:55.330Z,7.13
2018-06-04T11:40:24.712Z,7.40
2018-06-04T11:42:53.039Z,8.17
2018-06-04T11:45:21.419Z,8.13
2018-06-04T11:48:02.384Z,7.83
2018-06-04T11:50:33.933Z,7.00
2018-06-04T11:53:05.297Z,7.97
2018-06-04T11:55:33.779Z,6.83
2018-06-04T11:58:03.932Z,6.53
2018-06-04T12:00:38.436Z,7.30
2018-06-04T12:03:11.273Z,7.30
2018-06-04T12:05:39.709Z,8.07
2018-06-04T12:08:08.084Z,8.40
2018-06-04T12:10:36.481Z,7.57
2018-06-04T12:13:04.885Z,6.67
2018-06-04T12:15:33.265Z,7.33
2018-06-04T12:18:01.678Z,7.27
2018-06-04T12:20:30.048Z,6.80
2018-06-04T12:22:58.444Z,7.33
2018-06-04T12:25:27.031Z,7.87
2018-06-04T12:27:56.592Z,8.53
2018-06-04T12:30:25.844Z,7.50
2018-06-04T12:32:55.076Z,6.40
2018-06-04T12:35:24.301Z,5.93
2018-06-04T12:37:53.690Z,5.80
2018-06-04T12:40:22.946Z,6.93
2018-06-04T12:42:51.332Z,5.70
2018-06-04T12:45:19.686Z,6.17
2018-06-04T12:47:48.961Z,8.00
2018-06-04T12:50:17.285Z,7.20
2018-06-04T12:52:45.620Z,7.30
2018-06-04T12:55:13.944Z,7.60
2018-06-04T12:57:42.290Z,9.00
2018-06-04T13:00:10.665Z,7.10
2018-06-04T13:02:38.980Z,7.10
2018-06-04T13:05:07.389Z,7.50
2018-06-04T13:07:35.798Z,7.03
2018-06-04T13:10:04.138Z,8.07
2018-06-04T13:12:32.525Z,6.97
2018-06-04T13:15:01.238Z,6.63
2018-06-04T13:17:29.557Z,6.77
2018-06-04T13:19:57.884Z,7.57
2018-06-04T13:22:26.213Z,8.23
2018-06-04T13:24:54.558Z,8.37
2018-06-04T13:27:22.917Z,8.00
2018-06-04T13:29:51.311Z,8.03
2018-06-04T13:32:19.625Z,7.60
2018-06-04T13:34:54.710Z,7.47
2018-06-04T13:37:23.114Z,8.30
2018-06-04T13:39:51.440Z,7.20
2018-06-04T13:42:19.914Z,7.30
2018-06-04T13:44:48.363Z,7.10
2018-06-04T13:47:16.725Z,7.17
2018-06-04T13:49:45.153Z,6.07
2018-06-04T13:52:13.493Z,7.40
2018-06-04T13:54:41.822Z,7.30
2018-06-04T13:57:10.142Z,6.93
2018-06-04T13:59:40.342Z,7.93
2018-06-04T14:02:08.696Z,6.70
2018-06-04T14:04:37.031Z,6.30
2018-06-04T14:07:05.355Z,6.70
2018-06-04T14:09:33.821Z,5.93
2018-06-04T14:12:02.149Z,6.07
2018-06-04T14:14:30.468Z,6.33
2018-06-04T14:16:58.800Z,6.27
2018-06-04T14:19:27.186Z,6.80
2018-06-04T14:21:55.520Z,6.03
2018-06-04T14:24:23.860Z,6.03
2018-06-04T14:26:52.188Z,5.67
2018-06-04T14:29:21.626Z,6.33
2018-06-04T14:31:50.810Z,6.00
2018-06-04T14:34:19.120Z,5.80
2018-06-04T14:36:47.441Z,7.17
2018-06-04T14:39:16.643Z,5.80
2018-06-04T14:41:45.829Z,6.27
2018-06-04T14:44:15.223Z,6.20
2018-06-04T14:46:44.456Z,5.60
2018-06-04T14:49:13.652Z,5.73
2018-06-04T14:51:43.019Z,6.57
2018-06-04T14:54:12.350Z,5.50
2018-06-04T14:56:41.713Z,6.70
2018-06-04T14:59:10.945Z,5.40
2018-06-04T15:01:40.194Z,6.20
2018-06-04T15:04:09.405Z,6.00
2018-06-04T15:06:38.740Z,6.17
2018-06-04T15:09:08.518Z,6.17
2018-06-04T15:11:37.721Z,6.47
2018-06-04T15:14:06.184Z,6.60
2018-06-04T15:16:35.541Z,6.47
2018-06-04T15:19:03.861Z,6.27
2018-06-04T15:21:33.192Z,6.30
2018-06-04T15:24:02.465Z,7.07
2018-06-04T15:26:31.751Z,6.33
2018-06-04T15:29:00.068Z,7.17
2018-06-04T15:31:28.424Z,6.10
2018-06-04T15:33:57.634Z,6.80
2018-06-04T15:36:25.997Z,6.43
2018-06-04T15:38:54.324Z,5.57
2018-06-04T15:41:22.656Z,5.53
2018-06-04T15:43:51.101Z,5.60
2018-06-04T15:46:19.416Z,6.27
2018-06-04T15:48:47.768Z,6.17
2018-06-04T15:51:16.104Z,6.83
2018-06-04T15:53:44.437Z,6.17
2018-06-04T15:56:12.757Z,5.93
2018-06-04T15:58:42.262Z,7.13
2018-06-04T16:01:10.577Z,6.20
2018-06-04T16:03:38.953Z,7.00
2018-06-04T16:06:07.268Z,6.53
2018-06-04T16:08:35.621Z,6.60
2018-06-04T16:11:03.956Z,6.33
2018-06-04T16:13:32.269Z,6.93
2018-06-04T16:16:00.597Z,6.83
2018-06-04T16:18:28.977Z,7.83
2018-06-04T16:20:57.384Z,7.77
2018-06-04T16:23:25.749Z,6.53
2018-06-04T16:25:54.181Z,7.73
2018-06-04T16:28:22.494Z,7.33
2018-06-04T16:30:50.927Z,7.83
2018-06-04T16:33:19.229Z,7.43
2018-06-04T16:35:47.580Z,7.80
2018-06-04T16:38:15.886Z,8.40
2018-06-04T16:40:44.351Z,7.17
2018-06-04T16:43:12.773Z,7.30
2018-06-04T16:45:41.092Z,6.70
2018-06-04T16:48:09.395Z,7.20
2018-06-04T16:50:37.712Z,6.77
2018-06-04T16:53:06.091Z,7.70
2018-06-04T16:55:34.397Z,7.20
2018-06-04T16:58:02.712Z,7.20
2018-06-04T17:00:53.346Z,7.23
2018-06-04T17:03:22.771Z,7.80
2018-06-04T17:05:52.168Z,7.83
2018-06-04T17:08:21.484Z,7.90
2018-06-04T17:10:50.753Z,6.90
2018-06-04T17:13:19.058Z,8.00
2018-06-04T17:15:47.454Z,8.50
2018-06-04T17:18:15.818Z,7.40
2018-06-04T17:20:44.142Z,7.10
2018-06-04T17:23:13.495Z,7.40
2018-06-04T17:25:42.752Z,8.77
2018-06-04T17:28:12.098Z,8.30
2018-06-04T17:30:41.350Z,7.87
2018-06-04T17:33:10.555Z,7.80
2018-06-04T17:35:39.941Z,7.70
2018-06-04T17:38:09.199Z,8.63
2018-06-04T17:40:37.578Z,8.70
2018-06-04T17:43:05.929Z,8.60
2018-06-04T17:45:34.246Z,9.00
2018-06-04T17:48:02.622Z,8.60
2018-06-04T17:50:31.009Z,9.13
2018-06-04T17:52:59.361Z,9.20
2018-06-04T17:55:28.682Z,10.27
2018-06-04T17:57:57.560Z,10.47
2018-06-04T18:00:25.932Z,9.13
2018-06-04T18:02:55.161Z,8.77
2018-06-04T18:05:24.636Z,9.57
2018-06-04T18:07:53.766Z,9.43
2018-06-04T18:10:22.576Z,9.57
2018-06-04T18:12:50.928Z,9.33
2018-06-04T18:15:20.161Z,8.80
2018-06-04T18:17:49.639Z,10.27
2018-06-04T18:20:19.547Z,8.57
2018-06-04T18:22:48.754Z,9.13
2018-06-04T18:25:17.073Z,9.88
2018-06-04T18:27:46.555Z,9.30
2018-06-04T18:30:14.888Z,9.63
2018-06-04T18:32:44.265Z,10.10
2018-06-04T18:35:12.699Z,9.70
2018-06-04T18:37:41.083Z,9.07
2018-06-04T18:40:09.683Z,9.90
2018-06-04T18:42:38.070Z,8.60
2018-06-04T18:45:06.399Z,9.03
2018-06-04T18:47:35.633Z,7.70
2018-06-04T18:50:04.017Z,8.40
2018-06-04T18:52:32.373Z,8.60
2018-06-04T18:55:00.773Z,7.80
2018-06-04T18:57:29.136Z,8.20
2018-06-04T18:59:57.557Z,7.57
2018-06-04T19:02:26.001Z,7.73
2018-06-04T19:04:55.322Z,6.53
2018-06-04T19:07:24.554Z,6.63
2018-06-04T19:09:53.280Z,7.20
2018-06-04T19:12:21.669Z,6.10
2018-06-04T19:14:50.151Z,6.90
2018-06-04T19:17:18.522Z,7.30
2018-06-04T19:19:46.873Z,6.37
2018-06-04T19:22:15.297Z,6.23
2018-06-04T19:24:44.773Z,6.17
2018-06-04T19:27:14.186Z,5.70
2018-06-04T19:29:43.600Z,5.60
2018-06-04T19:32:11.994Z,5.50
2018-06-04T19:34:40.361Z,5.67
2018-06-04T19:37:08.838Z,5.80
2018-06-04T19:39:37.326Z,5.80
2018-06-04T19:42:05.789Z,6.77
2018-06-04T19:44:34.805Z,5.80
2018-06-04T19:47:03.239Z,6.40
2018-06-04T19:49:31.604Z,6.23
2018-06-04T19:51:59.921Z,5.97
2018-06-04T19:54:28.334Z,6.47
2018-06-04T19:56:56.694Z,5.57
2018-06-04T19:59:25.087Z,6.53
2018-06-04T20:01:53.459Z,6.60
2018-06-04T20:04:21.842Z,7.27
2018-06-04T20:06:50.232Z,6.40
2018-06-04T20:09:18.547Z,7.03
2018-06-04T20:11:46.853Z,6.27
2018-06-04T20:14:16.105Z,6.80
2018-06-04T20:16:44.469Z,6.30
2018-06-04T20:19:12.782Z,6.80
2018-06-04T20:21:41.167Z,7.60
2018-06-04T20:24:09.518Z,6.67
2018-06-04T20:26:38.796Z,7.03
2018-06-04T20:29:08.029Z,6.33
2018-06-04T20:31:36.373Z,6.90
2018-06-04T20:34:04.839Z,6.57
2018-06-04T20:36:33.176Z,7.80
2018-06-04T20:39:01.520Z,7.60
2018-06-04T20:41:30.862Z,7.60
2018-06-04T20:43:59.203Z,8.53
2018-06-04T20:46:27.573Z,7.83
2018-06-04T20:48:55.876Z,8.10
2018-06-04T20:51:24.198Z,6.90
2018-06-04T20:53:52.531Z,8.27
2018-06-04T20:56:20.862Z,8.40
2018-06-04T20:58:49.169Z,7.43
2018-06-04T21:01:17.628Z,8.00
2018-06-04T21:03:45.941Z,8.60
2018-06-04T21:06:15.329Z,8.57
2018-06-04T21:08:44.565Z,9.77
2018-06-04T21:11:12.886Z,9.60
2018-06-04T21:13:41.289Z,8.83
2018-06-04T21:16:09.644Z,9.50
2018-06-04T21:18:37.988Z,9.30
2018-06-04T21:21:06.321Z,10.40
2018-06-04T21:23:34.636Z,9.37
2018-06-04T21:26:04.008Z,10.43
2018-06-04T21:28:33.289Z,10.50
2018-06-04T21:31:02.633Z,11.30
2018-06-04T21:33:31.076Z,11.00
2018-06-04T21:35:59.396Z,11.80
2018-06-04T21:38:28.717Z,10.20
2018-06-04T21:40:57.065Z,12.60
2018-06-04T21:43:25.412Z,14.30
2018-06-04T21:45:53.760Z,13.47
2018-06-04T21:48:23.089Z,12.90
2018-06-04T21:50:51.491Z,12.37
2018-06-04T21:53:19.834Z,14.00
2018-06-04T21:55:48.200Z,14.87
2018-06-04T21:58:16.533Z,14.67
2018-06-04T22:00:44.924Z,14.27
2018-06-04T22:03:13.494Z,14.77
2018-06-04T22:05:41.817Z,15.03
2018-06-04T22:08:10.142Z,12.93
2018-06-04T22:10:39.500Z,14.20
2018-06-04T22:13:08.006Z,13.30
2018-06-04T22:15:36.328Z,15.33
2018-06-04T22:18:04.865Z,15.30
2018-06-04T22:20:33.237Z,14.50
2018-06-04T22:23:01.659Z,15.83
2018-06-04T22:25:30.880Z,15.50
2018-06-04T22:27:59.184Z,16.37
2018-06-04T22:30:27.715Z,15.93
2018-06-04T22:32:56.305Z,16.07
2018-06-04T22:35:25.874Z,15.33
2018-06-04T22:37:54.279Z,16.50
2018-06-04T22:40:22.624Z,16.63
2018-06-04T22:42:51.884Z,18.33
2018-06-04T22:45:21.121Z,15.90
2018-06-04T22:47:50.374Z,17.13
2018-06-04T22:50:18.700Z,15.30
2018-06-04T22:52:48.200Z,16.40
2018-06-04T22:55:16.540Z,17.50
2018-06-04T22:57:44.856Z,14.90
2018-06-04T23:00:33.061Z,15.53
2018-06-04T23:03:01.869Z,16.03
2018-06-04T23:05:30.277Z,16.20
2018-06-04T23:07:58.604Z,16.83
2018-06-04T23:10:26.965Z,17.30
2018-06-04T23:12:55.284Z,17.27
2018-06-04T23:15:23.648Z,17.70
2018-06-04T23:17:52.023Z,16.40
2018-06-04T23:20:20.349Z,17.40
2018-06-04T23:22:48.683Z,18.77
2018-06-04T23:25:17.044Z,17.50
2018-06-04T23:27:45.388Z,16.57
2018-06-04T23:30:13.719Z,16.73
2018-06-04T23:32:42.045Z,15.90
2018-06-04T23:35:10.376Z,17.20
2018-06-04T23:37:39.591Z,18.37
2018-06-04T23:40:07.951Z,17.07
2018-06-04T23:42:37.299Z,17.53
2018-06-04T23:45:05.632Z,15.03
2018-06-04T23:47:34.060Z,15.73
2018-06-04T23:50:02.504Z,18.03
2018-06-04T23:52:30.827Z,16.07
2018-06-04T23:54:59.206Z,17.77
2018-06-04T23:57:27.532Z,18.13
2018-06-04T23:59:56.877Z,18.37
